createdAt,value
2024-03-07T00:01:15.011Z,98924.28
2024-03-07T00:03:43.170Z,98922.44
2024-03-07T00:06:11.396Z,98929.91
2024-03-07T00:08:39.775Z,98928.03
2024-03-07T00:11:08.554Z,98926.94
2024-03-07T00:13:37.085Z,98937.25
2024-03-07T00:16:05.243Z,98940.91
2024-03-07T00:18:33.544Z,98930.63
2024-03-07T00:21:01.785Z,98931.84
2024-03-07T00:23:30.057Z,98940.31
2024-03-07T00:25:58.029Z,98941.44
2024-03-07T00:28:30.480Z,98939.63
2024-03-07T00:30:58.954Z,98945.41
2024-03-07T00:33:33.888Z,98941.72
2024-03-07T00:36:10.905Z,98951.81
2024-03-07T00:38:41.417Z,98949.72
2024-03-07T00:41:09.382Z,98951.84
2024-03-07T00:43:37.532Z,98949.16
2024-03-07T00:46:07.594Z,98952.97
2024-03-07T00:48:36.908Z,98942.63
2024-03-07T00:51:05.479Z,98947.91
2024-03-07T00:53:33.621Z,98938.38
2024-03-07T00:56:01.569Z,98936.94
2024-03-07T00:58:29.827Z,98937.84
2024-03-07T01:00:57.747Z,98942.75
2024-03-07T01:03:25.824Z,98944.47
2024-03-07T01:05:54.024Z,98941.53
2024-03-07T01:08:22.382Z,98941.63
2024-03-07T01:10:50.419Z,98942.25
2024-03-07T01:13:23.441Z,98936.19
2024-03-07T01:15:51.921Z,98943.19
2024-03-07T01:18:20.319Z,98941.88
2024-03-07T01:20:48.374Z,98942.28
2024-03-07T01:23:16.535Z,98948.53
2024-03-07T01:25:44.438Z,98945.13
2024-03-07T01:28:15.036Z,98949.28
2024-03-07T01:30:42.906Z,98942.91
2024-03-07T01:33:11.107Z,98949.16
2024-03-07T01:35:39.112Z,98953.97
2024-03-07T01:38:07.936Z,98950.38
2024-03-07T01:40:35.845Z,98947.50
2024-03-07T01:43:04.808Z,98953.53
2024-03-07T01:45:33.151Z,98953.53
2024-03-07T01:48:01.515Z,98952.97
2024-03-07T01:50:30.103Z,98954.81
2024-03-07T01:52:58.414Z,98953.97
2024-03-07T01:55:28.296Z,98950.03
2024-03-07T01:58:01.489Z,98951.31
2024-03-07T02:00:29.428Z,98953.91
2024-03-07T02:02:57.921Z,98943.00
2024-03-07T02:05:26.004Z,98942.91
2024-03-07T02:07:54.265Z,98937.38
2024-03-07T02:10:22.164Z,98936.53
2024-03-07T02:12:50.460Z,98941.06
2024-03-07T02:15:18.746Z,98938.47
2024-03-07T02:17:47.385Z,98938.38
2024-03-07T02:20:17.230Z,98935.06
2024-03-07T02:22:45.185Z,98937.91
2024-03-07T02:25:13.923Z,98935.41
2024-03-07T02:27:42.266Z,98944.19
2024-03-07T02:30:11.714Z,98941.13
2024-03-07T02:32:40.316Z,98936.44
2024-03-07T02:35:09.719Z,98936.34
2024-03-07T02:37:37.749Z,98930.81
2024-03-07T02:40:06.639Z,98935.34
2024-03-07T02:42:37.273Z,98938.91
2024-03-07T02:45:06.311Z,98931.16
2024-03-07T02:47:34.486Z,98934.69
2024-03-07T02:50:02.692Z,98934.88
2024-03-07T02:52:30.784Z,98928.72
2024-03-07T02:54:59.078Z,98936.09
2024-03-07T02:57:27.512Z,98934.25
2024-03-07T02:59:55.834Z,98938.00
2024-03-07T03:02:24.298Z,98936.09
2024-03-07T03:04:52.795Z,98933.69
2024-03-07T03:07:20.649Z,98930.00
2024-03-07T03:09:48.812Z,98935.06
2024-03-07T03:12:17.547Z,98938.38
2024-03-07T03:14:45.674Z,98929.88
2024-03-07T03:17:14.829Z,98931.00
2024-03-07T03:19:42.783Z,98936.34
2024-03-07T03:22:11.709Z,98930.09
2024-03-07T03:24:42.457Z,98929.34
2024-03-07T03:27:10.470Z,98928.50
2024-03-07T03:29:38.538Z,98938.47
2024-03-07T03:32:06.409Z,98931.00
2024-03-07T03:34:34.797Z,98932.53
2024-03-07T03:37:02.732Z,98933.31
2024-03-07T03:39:31.645Z,98931.19
2024-03-07T03:42:02.063Z,98925.72
2024-03-07T03:44:30.678Z,98931.47
2024-03-07T03:46:58.557Z,98925.00
2024-03-07T03:49:26.565Z,98926.69
2024-03-07T03:51:54.627Z,98927.59
2024-03-07T03:54:22.776Z,98924.81
2024-03-07T03:56:50.766Z,98935.34
2024-03-07T03:59:18.930Z,98938.75
2024-03-07T04:01:47.134Z,98934.78
2024-03-07T04:04:15.400Z,98930.25
2024-03-07T04:06:43.520Z,98932.09
2024-03-07T04:09:11.420Z,98928.88
2024-03-07T04:11:39.742Z,98928.22
2024-03-07T04:14:08.049Z,98927.88
2024-03-07T04:16:36.204Z,98929.53
2024-03-07T04:19:04.831Z,98928.97
2024-03-07T04:21:33.244Z,98928.78
2024-03-07T04:24:02.168Z,98929.97
2024-03-07T04:26:30.329Z,98932.00
2024-03-07T04:28:59.168Z,98933.56
2024-03-07T04:31:27.601Z,98934.06
2024-03-07T04:33:55.495Z,98932.44
2024-03-07T04:36:24.683Z,98937.63
2024-03-07T04:38:53.633Z,98933.63
2024-03-07T04:41:22.037Z,98934.19
2024-03-07T04:43:49.997Z,98942.91
2024-03-07T04:46:19.014Z,98939.03
2024-03-07T04:48:46.995Z,98937.75
2024-03-07T04:51:15.516Z,98933.41
2024-03-07T04:53:43.779Z,98936.91
2024-03-07T04:56:12.725Z,98942.72
2024-03-07T04:58:40.694Z,98938.31
2024-03-07T05:01:08.886Z,98933.03
2024-03-07T05:03:36.861Z,98935.28
2024-03-07T05:06:05.041Z,98941.47
2024-03-07T05:08:34.575Z,98948.94
2024-03-07T05:11:02.709Z,98942.13
2024-03-07T05:13:30.578Z,98944.66
2024-03-07T05:15:58.845Z,98941.88
2024-03-07T05:18:26.864Z,98936.03
2024-03-07T05:20:56.118Z,98945.16
2024-03-07T05:23:24.101Z,98950.72
2024-03-07T05:25:52.171Z,98953.25
2024-03-07T05:28:20.149Z,98946.81
2024-03-07T05:30:49.178Z,98950.13
2024-03-07T05:33:19.242Z,98957.91
2024-03-07T05:35:47.654Z,98954.91
2024-03-07T05:38:15.566Z,98954.63
2024-03-07T05:40:46.969Z,98958.72
2024-03-07T05:43:14.815Z,98960.56
2024-03-07T05:45:43.477Z,98954.13
2024-03-07T05:48:18.842Z,98955.47
2024-03-07T05:50:47.887Z,98959.84
2024-03-07T05:53:15.962Z,98960.03
2024-03-07T05:55:44.065Z,98948.94
2024-03-07T05:58:11.936Z,98955.09
2024-03-07T06:00:41.334Z,98955.16
2024-03-07T06:03:09.628Z,98954.91
2024-03-07T06:05:37.786Z,98951.59
2024-03-07T06:08:08.218Z,98954.91
2024-03-07T06:10:36.593Z,98952.16
2024-03-07T06:13:10.462Z,98962.28
2024-03-07T06:15:40.190Z,98960.22
2024-03-07T06:18:12.796Z,98959.03
2024-03-07T06:20:42.432Z,98964.91
2024-03-07T06:23:13.527Z,98956.91
2024-03-07T06:25:48.544Z,98949.09
2024-03-07T06:28:17.174Z,98961.91
2024-03-07T06:30:48.272Z,98964.06
2024-03-07T06:33:22.888Z,98963.44
2024-03-07T06:35:52.753Z,98959.09
2024-03-07T06:38:21.149Z,98964.38
2024-03-07T06:40:50.084Z,98969.25
2024-03-07T06:43:18.814Z,98972.31
2024-03-07T06:45:47.687Z,98965.13
2024-03-07T06:48:16.097Z,98965.34
2024-03-07T06:50:45.845Z,98961.34
2024-03-07T06:53:14.222Z,98969.13
2024-03-07T06:55:42.400Z,98972.22
2024-03-07T06:58:11.838Z,98970.38
2024-03-07T07:00:41.347Z,98975.91
2024-03-07T07:03:09.539Z,98981.47
2024-03-07T07:05:37.582Z,98973.88
2024-03-07T07:08:06.224Z,98982.41
2024-03-07T07:10:34.355Z,98979.22
2024-03-07T07:13:02.547Z,98979.56
2024-03-07T07:15:30.440Z,98974.84
2024-03-07T07:17:59.772Z,98975.63
2024-03-07T07:20:28.588Z,98975.38
2024-03-07T07:22:58.802Z,98973.47
2024-03-07T07:25:28.636Z,98975.78
2024-03-07T07:27:56.643Z,98974.78
2024-03-07T07:30:25.460Z,98979.47
2024-03-07T07:32:55.045Z,98966.78
2024-03-07T07:35:23.921Z,98964.13
2024-03-07T07:37:55.160Z,98959.53
2024-03-07T07:40:24.716Z,98956.34
2024-03-07T07:42:53.723Z,98956.28
2024-03-07T07:45:24.466Z,98965.25
2024-03-07T07:47:54.648Z,98957.28
2024-03-07T07:50:26.611Z,98957.69
2024-03-07T07:52:58.888Z,98956.69
2024-03-07T07:55:28.620Z,98960.84
2024-03-07T07:57:58.729Z,98951.78
2024-03-07T08:00:30.608Z,98951.59
2024-03-07T08:03:01.681Z,98956.66
2024-03-07T08:05:32.853Z,98963.19
2024-03-07T08:08:07.326Z,98956.63
2024-03-07T08:10:36.966Z,98955.19
2024-03-07T08:13:14.451Z,98956.84
2024-03-07T08:15:43.471Z,98966.16
2024-03-07T08:18:12.512Z,98958.97
2024-03-07T08:20:42.674Z,98965.69
2024-03-07T08:23:11.509Z,98958.66
2024-03-07T08:25:42.040Z,98952.47
2024-03-07T08:28:10.274Z,98956.38
2024-03-07T08:30:38.477Z,98952.31
2024-03-07T08:33:07.450Z,98948.00
2024-03-07T08:35:36.413Z,98946.97
2024-03-07T08:38:06.156Z,98946.47
2024-03-07T08:40:35.698Z,98951.88
2024-03-07T08:43:04.738Z,98949.59
2024-03-07T08:45:36.507Z,98952.97
2024-03-07T08:48:11.324Z,98952.97
2024-03-07T08:50:40.453Z,98950.31
2024-03-07T08:53:10.099Z,98944.94
2024-03-07T08:55:38.742Z,98938.63
2024-03-07T08:58:10.114Z,98946.09
2024-03-07T09:00:40.193Z,98941.28
2024-03-07T09:03:12.021Z,98942.28
2024-03-07T09:05:42.419Z,98937.81
2024-03-07T09:08:10.661Z,98941.66
2024-03-07T09:10:43.376Z,98941.16
2024-03-07T09:13:12.216Z,98941.53
2024-03-07T09:15:40.520Z,98939.31
2024-03-07T09:18:09.941Z,98945.69
2024-03-07T09:20:39.370Z,98941.97
2024-03-07T09:23:08.033Z,98940.56
2024-03-07T09:25:36.251Z,98938.94
2024-03-07T09:28:04.855Z,98940.78
2024-03-07T09:30:33.292Z,98934.59
2024-03-07T09:33:02.932Z,98937.97
2024-03-07T09:35:31.316Z,98940.94
2024-03-07T09:37:59.375Z,98937.50
2024-03-07T09:40:28.505Z,98941.97
2024-03-07T09:42:59.472Z,98939.91
2024-03-07T09:45:33.081Z,98933.16
2024-03-07T09:48:01.837Z,98941.06
2024-03-07T09:50:31.736Z,98939.63
2024-03-07T09:53:01.287Z,98931.19
2024-03-07T09:55:29.838Z,98928.47
2024-03-07T09:58:01.062Z,98936.94
2024-03-07T10:00:31.821Z,98936.84
2024-03-07T10:03:03.917Z,98935.50
2024-03-07T10:05:33.939Z,98936.81
2024-03-07T10:08:02.982Z,98938.94
2024-03-07T10:10:32.359Z,98937.28
2024-03-07T10:13:01.665Z,98935.44
2024-03-07T10:15:30.889Z,98929.78
2024-03-07T10:17:59.238Z,98929.78
2024-03-07T10:20:29.018Z,98925.69
2024-03-07T10:23:01.694Z,98933.09
2024-03-07T10:25:30.642Z,98921.09
2024-03-07T10:27:59.969Z,98927.72
2024-03-07T10:30:29.394Z,98930.81
2024-03-07T10:33:01.632Z,98927.03
2024-03-07T10:35:32.892Z,98920.09
2024-03-07T10:38:02.500Z,98924.66
2024-03-07T10:40:31.945Z,98921.59
2024-03-07T10:43:04.565Z,98919.06
2024-03-07T10:45:36.366Z,98913.09
2024-03-07T10:48:05.165Z,98914.66
2024-03-07T10:50:44.577Z,98916.50
2024-03-07T10:53:37.606Z,98914.19
2024-03-07T10:56:35.351Z,98917.25
2024-03-07T10:59:35.579Z,98904.94
2024-03-07T11:02:28.346Z,98910.50
2024-03-07T11:04:57.746Z,98912.16
2024-03-07T11:07:26.281Z,98911.31
2024-03-07T11:09:56.843Z,98911.59
2024-03-07T11:12:25.845Z,98901.59
2024-03-07T11:14:55.856Z,98906.44
2024-03-07T11:17:25.367Z,98907.56
2024-03-07T11:19:53.613Z,98910.81
2024-03-07T11:22:33.127Z,98911.78
2024-03-07T11:25:02.316Z,98902.00
2024-03-07T11:27:31.398Z,98902.34
2024-03-07T11:30:09.366Z,98905.38
2024-03-07T11:32:39.582Z,98898.91
2024-03-07T11:35:16.322Z,98898.44
2024-03-07T11:37:47.552Z,98895.78
2024-03-07T11:40:21.517Z,98894.13
2024-03-07T11:42:50.416Z,98900.53
2024-03-07T11:45:26.505Z,98894.72
2024-03-07T11:48:08.463Z,98891.44
2024-03-07T11:50:41.969Z,98886.22
2024-03-07T11:53:10.779Z,98883.28
2024-03-07T11:55:44.644Z,98887.81
2024-03-07T11:58:17.861Z,98887.53
2024-03-07T12:00:47.144Z,98883.66
2024-03-07T12:03:18.587Z,98880.59
2024-03-07T12:05:47.845Z,98878.53
2024-03-07T12:08:16.833Z,98878.53
2024-03-07T12:10:49.119Z,98880.00
2024-03-07T12:13:20.917Z,98872.81
2024-03-07T12:15:50.025Z,98874.66
2024-03-07T12:18:21.850Z,98871.06
2024-03-07T12:20:56.662Z,98870.84
2024-03-07T12:23:27.394Z,98861.69
2024-03-07T12:26:06.626Z,98859.94
2024-03-07T12:28:36.035Z,98853.09
2024-03-07T12:31:06.387Z,98854.59
2024-03-07T12:33:40.837Z,98854.44
2024-03-07T12:36:11.688Z,98852.00
2024-03-07T12:38:42.806Z,98848.22
2024-03-07T12:41:15.972Z,98847.06
2024-03-07T12:43:47.679Z,98850.03
2024-03-07T12:46:17.358Z,98852.69
2024-03-07T12:48:46.752Z,98852.38
2024-03-07T12:51:19.944Z,98852.69
2024-03-07T12:53:49.983Z,98848.56
2024-03-07T12:56:20.629Z,98841.19
2024-03-07T12:58:51.068Z,98836.50
2024-03-07T13:01:21.368Z,98840.53
2024-03-07T13:03:49.889Z,98834.63
2024-03-07T13:06:25.423Z,98831.94
2024-03-07T13:08:53.482Z,98846.56
2024-03-07T13:11:22.233Z,98839.41
2024-03-07T13:13:50.476Z,98848.06
2024-03-07T13:16:20.255Z,98847.38
2024-03-07T13:18:48.342Z,98847.03
2024-03-07T13:21:18.746Z,98853.00
2024-03-07T13:23:47.442Z,98853.72
2024-03-07T13:26:25.522Z,98855.38
2024-03-07T13:28:55.274Z,98854.44
2024-03-07T13:31:25.376Z,98853.72
2024-03-07T13:33:53.558Z,98851.00
2024-03-07T13:36:24.611Z,98847.31
2024-03-07T13:38:57.333Z,98849.44
2024-03-07T13:41:27.654Z,98852.44
2024-03-07T13:43:55.785Z,98856.03
2024-03-07T13:46:24.058Z,98854.59
2024-03-07T13:48:52.979Z,98856.41
2024-03-07T13:51:21.668Z,98852.28
2024-03-07T13:53:51.834Z,98864.66
2024-03-07T13:57:06.804Z,98858.94
2024-03-07T13:59:58.050Z,98855.69
2024-03-07T14:02:47.975Z,98857.75
2024-03-07T14:05:24.130Z,98848.75
2024-03-07T14:08:16.308Z,98850.00
2024-03-07T14:11:06.260Z,98857.63
2024-03-07T14:14:02.200Z,98859.19
2024-03-07T14:16:52.035Z,98851.25
2024-03-07T14:19:38.516Z,98853.50
2024-03-07T14:22:44.113Z,98861.03
2024-03-07T14:25:21.406Z,98860.97
2024-03-07T14:28:08.498Z,98863.28
2024-03-07T14:30:45.037Z,98880.53
2024-03-07T14:33:14.558Z,98870.16
2024-03-07T14:36:05.645Z,98875.97
2024-03-07T14:38:55.619Z,98870.53
2024-03-07T14:41:48.449Z,98874.44
2024-03-07T14:44:18.876Z,98868.63
2024-03-07T14:46:51.831Z,98874.84
2024-03-07T14:49:20.606Z,98878.25
2024-03-07T14:51:58.622Z,98873.72
2024-03-07T14:54:29.399Z,98873.09
2024-03-07T14:56:57.630Z,98873.41
2024-03-07T14:59:27.421Z,98870.84
2024-03-07T15:01:58.655Z,98875.16
2024-03-07T15:04:33.881Z,98878.44
2024-03-07T15:07:03.856Z,98881.31
2024-03-07T15:09:35.499Z,98878.06
2024-03-07T15:12:04.049Z,98872.59
2024-03-07T15:14:38.245Z,98879.63
2024-03-07T15:17:08.779Z,98873.31
2024-03-07T15:19:36.773Z,98871.66
2024-03-07T15:22:06.014Z,98875.06
2024-03-07T15:24:36.879Z,98871.13
2024-03-07T15:27:05.963Z,98874.13
2024-03-07T15:29:34.187Z,98893.91
2024-03-07T15:32:04.110Z,98881.16
2024-03-07T15:34:38.752Z,98878.31
2024-03-07T15:37:08.359Z,98876.16
2024-03-07T15:39:40.177Z,98886.19
2024-03-07T15:42:10.708Z,98878.63
2024-03-07T15:44:41.185Z,98885.31
2024-03-07T15:47:09.704Z,98877.38
2024-03-07T15:49:39.682Z,98886.28
2024-03-07T15:52:07.672Z,98875.00
2024-03-07T15:54:35.762Z,98882.75
2024-03-07T15:57:05.104Z,98879.91
2024-03-07T15:59:36.089Z,98884.06
2024-03-07T16:02:05.984Z,98886.75
2024-03-07T16:04:35.213Z,98887.72
2024-03-07T16:07:04.939Z,98892.47
2024-03-07T16:09:33.292Z,98899.38
2024-03-07T16:12:02.882Z,98886.66
2024-03-07T16:14:31.270Z,98892.91
2024-03-07T16:16:59.171Z,98895.66
2024-03-07T16:19:27.230Z,98900.13
2024-03-07T16:21:55.205Z,98901.59
2024-03-07T16:24:23.284Z,98904.06
2024-03-07T16:26:52.192Z,98898.53
2024-03-07T16:29:20.496Z,98896.44
2024-03-07T16:31:48.864Z,98900.94
2024-03-07T16:34:17.936Z,98909.31
2024-03-07T16:36:47.148Z,98908.84
2024-03-07T16:39:15.260Z,98906.09
2024-03-07T16:41:44.070Z,98907.66
2024-03-07T16:44:12.468Z,98905.09
2024-03-07T16:46:41.955Z,98912.72
2024-03-07T16:49:10.086Z,98906.44
2024-03-07T16:51:38.083Z,98906.63
2024-03-07T16:54:06.956Z,98911.41
2024-03-07T16:56:41.926Z,98910.66
2024-03-07T16:59:11.662Z,98903.06
2024-03-07T17:01:45.610Z,98912.59
2024-03-07T17:04:14.123Z,98913.94
2024-03-07T17:06:42.042Z,98916.16
2024-03-07T17:09:12.492Z,98918.88
2024-03-07T17:11:42.285Z,98914.81
2024-03-07T17:14:11.362Z,98917.22
2024-03-07T17:16:39.600Z,98911.16
2024-03-07T17:19:14.945Z,98915.44
2024-03-07T17:21:43.369Z,98912.00
2024-03-07T17:24:11.649Z,98912.25
2024-03-07T17:26:39.748Z,98923.28
2024-03-07T17:29:07.827Z,98918.72
2024-03-07T17:31:36.697Z,98920.94
2024-03-07T17:34:04.790Z,98918.91
2024-03-07T17:36:33.713Z,98924.94
2024-03-07T17:39:03.008Z,98928.44
2024-03-07T17:41:31.205Z,98927.31
2024-03-07T17:43:59.967Z,98929.44
2024-03-07T17:46:28.508Z,98925.94
2024-03-07T17:48:57.496Z,98926.19
2024-03-07T17:51:25.453Z,98936.75
2024-03-07T17:53:56.515Z,98933.44
2024-03-07T17:56:27.439Z,98934.41
2024-03-07T17:58:57.878Z,98935.25
2024-03-07T18:01:26.865Z,98936.03
2024-03-07T18:03:56.454Z,98936.69
2024-03-07T18:06:24.535Z,98940.53
2024-03-07T18:08:59.810Z,98940.03
2024-03-07T18:11:31.654Z,98936.34
2024-03-07T18:14:00.073Z,98935.44
2024-03-07T18:16:28.047Z,98931.44
2024-03-07T18:18:57.847Z,98928.75
2024-03-07T18:21:27.412Z,98939.91
2024-03-07T18:23:55.725Z,98932.25
2024-03-07T18:26:23.715Z,98934.59
2024-03-07T18:28:53.501Z,98932.66
2024-03-07T18:31:28.438Z,98930.38
2024-03-07T18:33:56.952Z,98927.19
2024-03-07T18:36:24.949Z,98938.44
2024-03-07T18:38:53.413Z,98936.78
2024-03-07T18:41:21.580Z,98938.84
2024-03-07T18:43:49.737Z,98934.56
2024-03-07T18:46:17.892Z,98933.56
2024-03-07T18:48:46.271Z,98930.09
2024-03-07T18:51:14.300Z,98932.63
2024-03-07T18:53:42.486Z,98928.53
2024-03-07T18:56:11.427Z,98933.13
2024-03-07T18:58:39.986Z,98934.91
2024-03-07T19:01:08.752Z,98935.41
2024-03-07T19:03:36.980Z,98937.03
2024-03-07T19:06:10.260Z,98930.34
2024-03-07T19:08:39.071Z,98929.25
2024-03-07T19:11:08.140Z,98924.56
2024-03-07T19:13:37.312Z,98920.75
2024-03-07T19:16:10.270Z,98925.56
2024-03-07T19:18:38.545Z,98919.44
2024-03-07T19:21:13.159Z,98918.25
2024-03-07T19:23:46.511Z,98921.03
2024-03-07T19:26:21.473Z,98922.75
2024-03-07T19:28:49.610Z,98918.50
2024-03-07T19:31:17.715Z,98918.84
2024-03-07T19:33:46.052Z,98914.66
2024-03-07T19:36:17.280Z,98915.69
2024-03-07T19:38:47.576Z,98917.66
2024-03-07T19:41:16.233Z,98916.81
2024-03-07T19:43:44.466Z,98917.66
2024-03-07T19:46:13.062Z,98915.63
2024-03-07T19:48:41.411Z,98916.09
2024-03-07T19:51:11.292Z,98921.63
2024-03-07T19:53:40.383Z,98921.81
2024-03-07T19:56:09.433Z,98919.31
2024-03-07T19:58:39.010Z,98918.06
2024-03-07T20:01:13.110Z,98912.53
2024-03-07T20:03:42.321Z,98914.38
2024-03-07T20:06:11.168Z,98912.69
2024-03-07T20:08:39.433Z,98918.47
2024-03-07T20:11:08.464Z,98914.97
2024-03-07T20:13:41.600Z,98913.00
2024-03-07T20:16:10.442Z,98914.22
2024-03-07T20:18:42.694Z,98917.94
2024-03-07T20:21:11.708Z,98911.25
2024-03-07T20:23:42.103Z,98914.84
2024-03-07T20:26:10.572Z,98908.81
2024-03-07T20:28:38.631Z,98913.78
2024-03-07T20:31:09.610Z,98917.09
2024-03-07T20:33:38.606Z,98913.09
2024-03-07T20:36:10.326Z,98917.66
2024-03-07T20:38:39.224Z,98909.91
2024-03-07T20:41:08.220Z,98915.84
2024-03-07T20:43:37.083Z,98910.16
2024-03-07T20:46:07.126Z,98904.66
2024-03-07T20:48:36.582Z,98912.97
2024-03-07T20:51:07.356Z,98909.41
2024-03-07T20:53:35.894Z,98908.69
2024-03-07T20:56:07.672Z,98911.44
2024-03-07T20:58:36.626Z,98906.91
2024-03-07T21:01:05.398Z,98909.03
2024-03-07T21:03:33.879Z,98901.38
2024-03-07T21:06:02.087Z,98901.81
2024-03-07T21:08:30.243Z,98905.41
2024-03-07T21:10:58.771Z,98901.63
2024-03-07T21:13:28.283Z,98905.16
2024-03-07T21:15:57.130Z,98902.69
2024-03-07T21:18:25.264Z,98900.06
2024-03-07T21:20:53.690Z,98895.41
2024-03-07T21:23:24.879Z,98896.50
2024-03-07T21:25:53.623Z,98891.34
2024-03-07T21:28:22.290Z,98886.84
2024-03-07T21:30:50.654Z,98893.56
2024-03-07T21:33:18.654Z,98883.88
2024-03-07T21:35:47.123Z,98884.53
2024-03-07T21:38:15.395Z,98891.06
2024-03-07T21:40:45.165Z,98881.47
2024-03-07T21:43:13.137Z,98882.47
2024-03-07T21:45:41.491Z,98885.59
2024-03-07T21:48:09.608Z,98879.94
2024-03-07T21:50:37.939Z,98872.22
2024-03-07T21:53:05.932Z,98878.22
2024-03-07T21:55:34.464Z,98876.38
2024-03-07T21:58:03.322Z,98878.28
2024-03-07T22:00:32.656Z,98886.06
2024-03-07T22:03:02.549Z,98880.09
2024-03-07T22:05:34.452Z,98885.16
2024-03-07T22:08:05.119Z,98882.50
2024-03-07T22:10:36.676Z,98881.03
2024-03-07T22:13:06.867Z,98883.28
2024-03-07T22:15:36.114Z,98876.53
2024-03-07T22:18:05.681Z,98875.56
2024-03-07T22:20:34.324Z,98874.53
2024-03-07T22:23:03.898Z,98876.81
2024-03-07T22:25:32.180Z,98874.97
2024-03-07T22:28:00.560Z,98879.13
2024-03-07T22:30:29.020Z,98875.28
2024-03-07T22:32:57.257Z,98875.28
2024-03-07T22:35:25.661Z,98867.59
2024-03-07T22:37:54.201Z,98861.81
2024-03-07T22:40:28.972Z,98864.53
2024-03-07T22:42:57.947Z,98866.38
2024-03-07T22:45:27.365Z,98858.38
2024-03-07T22:47:55.773Z,98851.72
2024-03-07T22:50:29.762Z,98853.91
2024-03-07T22:53:01.292Z,98852.38
2024-03-07T22:55:31.959Z,98857.25
2024-03-07T22:58:00.250Z,98856.44
2024-03-07T23:00:33.673Z,98852.56
2024-03-07T23:03:05.794Z,98849.56
2024-03-07T23:05:34.388Z,98848.22
2024-03-07T23:08:02.394Z,98851.91
2024-03-07T23:10:31.276Z,98852.44
2024-03-07T23:13:02.820Z,98849.13
2024-03-07T23:15:32.158Z,98841.66
2024-03-07T23:18:00.956Z,98846.63
2024-03-07T23:20:30.115Z,98852.16
2024-03-07T23:23:00.249Z,98849.75
2024-03-07T23:25:29.418Z,98846.16
2024-03-07T23:27:58.233Z,98852.34
2024-03-07T23:30:28.112Z,98844.47
2024-03-07T23:32:58.815Z,98852.34
2024-03-07T23:35:28.095Z,98845.63
2024-03-07T23:37:56.229Z,98842.16
2024-03-07T23:40:24.413Z,98846.50
2024-03-07T23:42:54.054Z,98842.19
2024-03-07T23:45:22.850Z,98838.66
2024-03-07T23:47:51.649Z,98845.34
2024-03-07T23:50:20.819Z,98839.19
2024-03-07T23:52:48.957Z,98842.56
2024-03-07T23:55:18.059Z,98840.19
2024-03-07T23:57:47.623Z,98834.50
